Time;durP1;ratioP1;P1;durP2;ratioP2;P2;SDS_P1;SDS_P2;PMS_P1;PMS_P2;Temp;Humidity;BMP_temperature;BMP_pressure;BME280_temperature;BME280_humidity;BME280_pressure;Samples;Min_cycle;Max_cycle;Signal;HPM_P1;HPM_P2
2023/04/09 00:00:24;;;;;;;38.23;18.50;;;4.60;99.90;;;;;;4197712;28;20532;-71
2023/04/09 00:02:26;;;;;;;36.60;18.17;;;4.60;99.90;;;;;;4197356;28;20459;-71
2023/04/09 00:04:30;;;;;;;40.00;17.90;;;4.60;99.90;;;;;;4201586;28;20449;-72
2023/04/09 00:06:32;;;;;;;40.43;18.90;;;4.50;99.90;;;;;;4200750;28;20522;-72
2023/04/09 00:08:34;;;;;;;38.30;19.07;;;4.50;99.90;;;;;;4205018;28;21012;-71
2023/04/09 00:10:36;;;;;;;44.23;18.90;;;4.50;99.90;;;;;;4200441;28;20900;-72
2023/04/09 00:12:38;;;;;;;38.97;17.63;;;4.40;99.90;;;;;;4200623;28;20499;-72
2023/04/09 00:14:40;;;;;;;40.53;18.27;;;4.40;99.90;;;;;;4201723;28;21267;-72
2023/04/09 00:16:42;;;;;;;38.97;18.70;;;4.40;99.90;;;;;;4200425;28;20464;-72
2023/04/09 00:18:44;;;;;;;43.60;20.07;;;4.30;99.90;;;;;;4197721;28;20454;-71
2023/04/09 00:20:47;;;;;;;41.50;19.17;;;4.30;99.90;;;;;;4200645;28;20448;-72
2023/04/09 00:22:50;;;;;;;38.30;17.97;;;4.30;99.90;;;;;;4200280;28;20435;-72
2023/04/09 00:24:52;;;;;;;42.63;19.33;;;4.20;99.90;;;;;;4199028;28;20491;-72
2023/04/09 00:26:54;;;;;;;42.53;18.03;;;4.20;99.90;;;;;;4199777;28;20839;-72
2023/04/09 00:28:56;;;;;;;39.93;19.00;;;4.20;99.90;;;;;;4199876;28;20451;-71
2023/04/09 00:30:58;;;;;;;40.43;19.10;;;4.10;99.90;;;;;;4199528;28;20496;-72
2023/04/09 00:33:00;;;;;;;41.57;18.67;;;4.10;99.90;;;;;;4197999;28;20594;-72
2023/04/09 00:35:02;;;;;;;39.43;18.80;;;4.10;99.90;;;;;;4203403;28;20453;-72
2023/04/09 00:37:05;;;;;;;38.23;18.17;;;4.10;99.90;;;;;;4201985;28;20486;-72
2023/04/09 00:39:07;;;;;;;38.57;18.83;;;4.00;99.90;;;;;;4201126;28;21049;-71
2023/04/09 00:41:09;;;;;;;41.57;18.90;;;4.00;99.90;;;;;;4198555;28;20958;-71
2023/04/09 00:43:11;;;;;;;47.37;19.57;;;4.00;99.90;;;;;;4201422;28;20473;-71
2023/04/09 00:45:14;;;;;;;42.83;19.43;;;4.00;99.90;;;;;;4200597;28;20847;-72
2023/04/09 00:47:15;;;;;;;41.23;19.60;;;4.00;99.90;;;;;;4202775;28;20483;-70
2023/04/09 00:49:17;;;;;;;40.87;18.97;;;3.90;99.90;;;;;;4204709;28;20470;-71
2023/04/09 00:51:19;;;;;;;41.93;18.87;;;3.90;99.90;;;;;;4208321;28;20504;-72
2023/04/09 00:53:23;;;;;;;43.07;20.07;;;3.80;99.90;;;;;;4208211;28;20495;-73
2023/04/09 00:55:25;;;;;;;46.43;19.43;;;3.80;99.90;;;;;;4200104;28;20559;-71
2023/04/09 00:57:28;;;;;;;43.47;19.77;;;3.80;99.90;;;;;;4202504;28;20474;-71
2023/04/09 00:59:30;;;;;;;47.03;20.33;;;3.80;99.90;;;;;;4200713;28;20467;-71
2023/04/09 01:01:32;;;;;;;41.53;19.33;;;3.70;99.90;;;;;;4205858;28;20471;-72
2023/04/09 01:03:35;;;;;;;47.17;20.67;;;3.70;99.90;;;;;;4203605;28;20900;-71
2023/04/09 01:05:45;;;;;;;43.10;20.53;;;3.70;99.90;;;;;;4204987;28;20542;-72
2023/04/09 01:08:01;;;;;;;42.00;18.90;;;3.60;99.90;;;;;;4204111;28;20549;-72
2023/04/09 01:10:16;;;;;;;44.17;19.90;;;3.60;99.90;;;;;;4205747;28;20474;-72
2023/04/09 01:12:25;;;;;;;46.50;20.47;;;3.60;99.90;;;;;;4203901;28;20479;-71
2023/04/09 01:14:34;;;;;;;40.43;18.87;;;3.50;99.90;;;;;;4201644;28;20459;-71
2023/04/09 01:16:37;;;;;;;43.27;19.57;;;3.50;99.90;;;;;;4205091;28;20518;-72
2023/04/09 01:18:44;;;;;;;40.50;18.60;;;3.50;99.90;;;;;;4203119;28;20567;-71
2023/04/09 01:20:56;;;;;;;43.10;20.00;;;3.40;99.90;;;;;;4207244;28;20920;-72
2023/04/09 01:23:05;;;;;;;44.33;19.70;;;3.40;99.90;;;;;;4203092;28;20471;-72
2023/04/09 01:25:19;;;;;;;41.57;20.03;;;3.40;99.90;;;;;;4198499;28;20458;-72
2023/04/09 01:27:21;;;;;;;41.50;19.17;;;3.40;99.90;;;;;;4202908;28;20487;-71
2023/04/09 01:29:25;;;;;;;43.03;20.27;;;3.30;99.90;;;;;;4203339;28;20461;-71
2023/04/09 01:31:30;;;;;;;46.80;19.80;;;3.30;99.90;;;;;;4201754;28;20487;-72
2023/04/09 01:33:33;;;;;;;44.33;19.33;;;3.30;99.90;;;;;;4204310;28;20563;-71
2023/04/09 01:35:35;;;;;;;45.90;20.70;;;3.30;99.90;;;;;;4203757;28;20465;-71
2023/04/09 01:37:38;;;;;;;42.80;20.07;;;3.30;99.90;;;;;;4204291;28;20543;-72
2023/04/09 01:39:41;;;;;;;45.07;19.33;;;3.20;99.90;;;;;;4203454;28;20555;-71
2023/04/09 01:41:44;;;;;;;43.70;19.47;;;3.20;99.90;;;;;;4202847;28;20989;-71
2023/04/09 01:43:46;;;;;;;44.30;20.07;;;3.20;99.90;;;;;;4204288;28;21825;-71
2023/04/09 01:45:51;;;;;;;42.70;19.17;;;3.20;99.90;;;;;;4204430;28;20558;-72
2023/04/09 01:47:54;;;;;;;45.63;20.07;;;3.10;99.90;;;;;;4199774;28;20533;-72
2023/04/09 01:49:57;;;;;;;42.50;19.00;;;3.10;99.90;;;;;;4203847;28;20558;-71
2023/04/09 01:51:59;;;;;;;41.97;18.80;;;3.10;99.90;;;;;;4205003;28;20479;-72
2023/04/09 01:54:01;;;;;;;41.07;18.97;;;3.10;99.90;;;;;;4196804;28;20952;-73
2023/04/09 01:56:04;;;;;;;40.13;18.90;;;3.00;99.90;;;;;;4205086;28;20487;-71
2023/04/09 01:58:06;;;;;;;42.53;19.10;;;3.00;99.90;;;;;;4200302;28;21025;-71
2023/04/09 02:00:10;;;;;;;42.30;19.10;;;3.00;99.90;;;;;;4201528;28;20473;-71
2023/04/09 02:02:27;;;;;;;40.47;19.53;;;3.00;99.90;;;;;;4201232;28;20465;-72
2023/04/09 02:04:33;;;;;;;43.73;19.23;;;2.90;99.90;;;;;;4202985;28;20451;-71
2023/04/09 02:06:40;;;;;;;44.00;20.03;;;2.90;99.90;;;;;;4204087;28;20847;-71
2023/04/09 02:08:46;;;;;;;44.23;19.07;;;2.90;99.90;;;;;;4204521;28;20490;-71
2023/04/09 02:10:54;;;;;;;48.37;19.57;;;2.90;99.90;;;;;;4200713;28;20558;-71
2023/04/09 02:12:57;;;;;;;41.87;18.87;;;2.90;99.90;;;;;;4204505;28;20971;-71
2023/04/09 02:15:01;;;;;;;44.33;19.73;;;2.80;99.90;;;;;;4201113;28;20490;-71
2023/04/09 02:17:03;;;;;;;44.60;19.30;;;2.80;99.90;;;;;;4198641;28;20829;-72
2023/04/09 02:19:07;;;;;;;41.77;19.13;;;2.80;99.90;;;;;;4201216;28;20452;-72
2023/04/09 02:21:12;;;;;;;44.43;19.33;;;2.80;99.90;;;;;;4201305;28;20549;-72
2023/04/09 02:23:16;;;;;;;45.43;19.97;;;2.80;99.90;;;;;;4203483;28;20544;-72
2023/04/09 02:25:18;;;;;;;41.60;19.37;;;2.80;99.90;;;;;;4200108;28;20542;-71
2023/04/09 02:27:20;;;;;;;46.10;19.87;;;2.80;99.90;;;;;;4201722;28;20471;-72
2023/04/09 02:29:22;;;;;;;50.87;21.77;;;2.70;99.90;;;;;;4205207;28;20454;-72
2023/04/09 02:31:24;;;;;;;44.47;20.40;;;2.70;99.90;;;;;;4203373;28;20519;-71
2023/04/09 02:33:25;;;;;;;49.70;20.70;;;2.70;99.90;;;;;;4200927;28;20488;-71
2023/04/09 02:35:29;;;;;;;49.90;20.33;;;2.70;99.90;;;;;;4202696;28;20819;-71
2023/04/09 02:37:31;;;;;;;50.97;21.83;;;2.70;99.90;;;;;;4198910;28;20534;-71
2023/04/09 02:39:33;;;;;;;45.47;20.23;;;2.60;99.90;;;;;;4201728;28;20463;-71
2023/04/09 02:41:34;;;;;;;43.70;20.33;;;2.60;99.90;;;;;;4201584;28;20490;-70
2023/04/09 02:43:37;;;;;;;45.40;20.27;;;2.60;99.90;;;;;;4204483;28;20865;-70
2023/04/09 02:45:39;;;;;;;48.60;20.40;;;2.60;99.90;;;;;;4202802;28;20488;-71
2023/04/09 02:47:41;;;;;;;43.30;19.33;;;2.60;99.90;;;;;;4199898;28;20538;-71
2023/04/09 02:49:42;;;;;;;49.37;20.87;;;2.50;99.90;;;;;;4202873;28;20452;-71
2023/04/09 02:51:46;;;;;;;46.47;20.80;;;2.50;99.90;;;;;;4205603;28;20541;-71
2023/04/09 02:53:48;;;;;;;47.30;20.83;;;2.50;99.90;;;;;;4201209;28;21510;-71
2023/04/09 02:55:49;;;;;;;48.13;21.07;;;2.50;99.90;;;;;;4199710;28;20494;-70
2023/04/09 02:57:51;;;;;;;43.67;19.60;;;2.50;99.90;;;;;;4202779;28;20996;-71
2023/04/09 02:59:53;;;;;;;47.30;21.07;;;2.40;99.90;;;;;;4201503;28;20530;-71
2023/04/09 03:01:55;;;;;;;46.77;20.93;;;2.40;99.90;;;;;;4201206;28;20470;-71
2023/04/09 03:03:57;;;;;;;48.27;20.90;;;2.40;99.90;;;;;;4202673;28;20536;-71
2023/04/09 03:05:59;;;;;;;47.43;20.57;;;2.40;99.90;;;;;;4199616;28;20466;-71
2023/04/09 03:08:02;;;;;;;46.07;19.83;;;2.40;99.90;;;;;;4202765;28;20507;-72
2023/04/09 03:10:05;;;;;;;44.57;19.33;;;2.40;99.90;;;;;;4195643;28;20446;-71
2023/04/09 03:12:06;;;;;;;47.37;22.03;;;2.30;99.90;;;;;;4198404;28;20509;-71
2023/04/09 03:14:09;;;;;;;43.73;21.40;;;2.30;99.90;;;;;;4202237;28;20482;-71
2023/04/09 03:16:10;;;;;;;43.73;20.40;;;2.30;99.90;;;;;;4201681;28;20471;-70
2023/04/09 03:18:12;;;;;;;49.63;21.40;;;2.30;99.90;;;;;;4202702;28;20452;-70
2023/04/09 03:20:14;;;;;;;45.57;20.20;;;2.20;99.90;;;;;;4200627;28;20444;-70
2023/04/09 03:22:16;;;;;;;42.23;20.50;;;2.20;99.90;;;;;;4201363;28;20542;-71
2023/04/09 03:24:19;;;;;;;43.70;20.03;;;2.20;99.90;;;;;;4201519;28;20486;-71
2023/04/09 03:26:21;;;;;;;47.37;20.93;;;2.20;99.90;;;;;;4202598;28;20510;-70
2023/04/09 03:28:23;;;;;;;44.83;20.30;;;2.20;99.90;;;;;;4203526;28;20455;-70
2023/04/09 03:30:25;;;;;;;46.07;19.97;;;2.10;99.90;;;;;;4201756;28;20535;-71
2023/04/09 03:32:27;;;;;;;47.10;20.50;;;2.10;99.90;;;;;;4200747;28;20488;-71
2023/04/09 03:34:29;;;;;;;49.57;20.70;;;2.10;99.90;;;;;;4203289;28;20446;-71
2023/04/09 03:36:31;;;;;;;50.00;21.60;;;2.10;99.90;;;;;;4197771;28;20514;-71
2023/04/09 03:38:33;;;;;;;55.50;23.60;;;2.10;99.90;;;;;;4199321;28;20452;-71
2023/04/09 03:40:36;;;;;;;54.47;23.97;;;2.10;99.90;;;;;;4200058;28;20491;-71
2023/04/09 03:42:38;;;;;;;52.97;23.70;;;2.00;99.90;;;;;;4201080;28;21003;-71
2023/04/09 03:44:40;;;;;;;57.90;25.80;;;2.00;99.90;;;;;;4197493;28;20541;-71
2023/04/09 03:46:42;;;;;;;65.13;28.73;;;2.00;99.90;;;;;;4200796;28;20571;-71
2023/04/09 03:48:45;;;;;;;64.80;30.30;;;2.00;99.90;;;;;;4200980;28;20552;-70
2023/04/09 03:50:47;;;;;;;78.27;33.43;;;2.00;99.90;;;;;;4200840;28;20456;-71
2023/04/09 03:52:49;;;;;;;85.77;37.57;;;2.00;99.90;;;;;;4200078;28;20548;-71
2023/04/09 03:54:51;;;;;;;81.77;36.00;;;2.00;99.90;;;;;;4198284;28;20509;-71
2023/04/09 03:56:55;;;;;;;83.87;39.23;;;1.90;99.90;;;;;;4202029;28;20914;-71
2023/04/09 03:58:57;;;;;;;89.60;40.60;;;1.90;99.90;;;;;;4198869;28;20490;-70
2023/04/09 04:00:58;;;;;;;90.13;39.90;;;1.90;99.90;;;;;;4203196;28;20850;-71
2023/04/09 04:03:00;;;;;;;91.10;40.03;;;1.90;99.90;;;;;;4200739;28;20452;-71
2023/04/09 04:05:02;;;;;;;89.63;39.40;;;1.90;99.90;;;;;;4204074;28;20479;-71
2023/04/09 04:07:04;;;;;;;83.37;37.70;;;1.90;99.90;;;;;;4200913;28;20477;-70
2023/04/09 04:09:06;;;;;;;84.00;36.57;;;1.90;99.90;;;;;;4202951;28;20547;-71
2023/04/09 04:11:08;;;;;;;83.97;35.53;;;1.90;99.90;;;;;;4203045;28;20458;-70
2023/04/09 04:13:12;;;;;;;79.23;34.80;;;1.90;99.90;;;;;;4194986;28;20525;-70
2023/04/09 04:15:14;;;;;;;77.83;33.63;;;1.90;99.90;;;;;;4197790;28;20467;-71
2023/04/09 04:17:16;;;;;;;82.27;34.40;;;1.80;99.90;;;;;;4200655;28;20469;-71
2023/04/09 04:19:18;;;;;;;75.93;33.63;;;1.80;99.90;;;;;;4201610;28;20459;-71
2023/04/09 04:21:20;;;;;;;73.50;32.60;;;1.80;99.90;;;;;;4203704;28;20978;-71
2023/04/09 04:23:22;;;;;;;79.03;31.63;;;1.80;99.90;;;;;;4200850;28;20459;-71
2023/04/09 04:25:24;;;;;;;75.20;31.53;;;1.70;99.90;;;;;;4202458;28;20499;-73
2023/04/09 04:27:25;;;;;;;71.10;31.43;;;1.70;99.90;;;;;;4206089;28;20549;-71
2023/04/09 04:29:29;;;;;;;71.77;30.53;;;1.70;99.90;;;;;;4206379;28;20451;-71
2023/04/09 04:31:31;;;;;;;78.03;30.43;;;1.70;99.90;;;;;;4207372;28;20467;-70
2023/04/09 04:33:33;;;;;;;64.17;28.90;;;1.70;99.90;;;;;;4206503;28;20539;-71
2023/04/09 04:35:35;;;;;;;67.20;29.87;;;1.70;99.90;;;;;;4206307;28;20455;-71
2023/04/09 04:37:37;;;;;;;66.97;28.67;;;1.70;99.90;;;;;;4207942;28;20481;-70
2023/04/09 04:39:39;;;;;;;60.33;28.73;;;1.70;99.90;;;;;;4203597;28;20539;-71
2023/04/09 04:41:41;;;;;;;64.37;27.83;;;1.70;99.90;;;;;;4204849;28;20479;-72
2023/04/09 04:43:43;;;;;;;63.20;27.37;;;1.70;99.90;;;;;;4207709;28;20558;-73
2023/04/09 04:45:46;;;;;;;61.67;26.30;;;1.60;99.90;;;;;;4205923;28;20502;-71
2023/04/09 04:47:48;;;;;;;63.67;25.83;;;1.80;99.90;;;;;;4202728;28;20474;-72
2023/04/09 04:49:50;;;;;;;56.97;25.93;;;1.60;99.90;;;;;;4208009;28;20563;-73
2023/04/09 04:51:54;;;;;;;64.53;27.93;;;1.60;99.90;;;;;;4206530;28;20824;-72
2023/04/09 04:53:56;;;;;;;61.00;26.70;;;1.70;99.90;;;;;;4201159;28;20459;-72
2023/04/09 04:55:58;;;;;;;61.47;26.47;;;1.60;99.90;;;;;;4204376;28;20534;-72
2023/04/09 04:58:00;;;;;;;68.80;28.50;;;1.60;99.90;;;;;;4201215;28;20455;-71
2023/04/09 05:00:02;;;;;;;74.20;30.13;;;1.60;99.90;;;;;;4201657;28;20442;-71
2023/04/09 05:02:06;;;;;;;66.73;27.67;;;1.80;99.90;;;;;;4211096;28;20975;-71
2023/04/09 05:04:08;;;;;;;62.83;27.40;;;1.70;99.90;;;;;;4204067;28;20448;-72
2023/04/09 05:06:10;;;;;;;62.37;26.40;;;1.70;99.90;;;;;;4201401;28;20479;-71
2023/04/09 05:08:12;;;;;;;58.10;25.90;;;1.70;99.90;;;;;;4204516;28;20534;-71
2023/04/09 05:10:14;;;;;;;58.53;25.07;;;1.60;99.90;;;;;;4204471;28;20483;-71
2023/04/09 05:12:16;;;;;;;57.37;24.50;;;1.60;99.90;;;;;;4202109;28;20525;-71
2023/04/09 05:14:20;;;;;;;56.23;24.03;;;1.60;99.90;;;;;;4198538;28;20490;-70
2023/04/09 05:16:22;;;;;;;58.83;24.40;;;1.60;99.90;;;;;;4206185;28;20490;-72
2023/04/09 05:18:25;;;;;;;56.33;24.00;;;1.60;99.90;;;;;;4202690;28;20462;-72
2023/04/09 05:20:27;;;;;;;54.30;24.37;;;1.60;99.90;;;;;;4205718;28;20451;-71
2023/04/09 05:22:29;;;;;;;54.87;23.50;;;1.60;99.90;;;;;;4205852;28;20496;-72
2023/04/09 05:24:31;;;;;;;50.57;23.57;;;1.60;99.90;;;;;;4203881;28;20518;-72
2023/04/09 05:26:34;;;;;;;51.13;23.30;;;1.70;99.90;;;;;;4203461;28;20478;-71
2023/04/09 05:28:36;;;;;;;50.20;22.77;;;1.60;99.90;;;;;;4204787;28;20501;-71
2023/04/09 05:30:38;;;;;;;52.97;22.10;;;1.60;99.90;;;;;;4204168;28;20496;-71
2023/04/09 05:32:40;;;;;;;49.20;21.70;;;1.60;99.90;;;;;;4202919;28;20518;-71
2023/04/09 05:34:43;;;;;;;52.37;22.47;;;1.60;99.90;;;;;;4202005;28;20448;-72
2023/04/09 05:36:45;;;;;;;53.30;23.23;;;1.60;99.90;;;;;;4204008;28;20990;-72
2023/04/09 05:38:48;;;;;;;51.23;22.90;;;1.60;99.90;;;;;;4204180;28;20457;-71
2023/04/09 05:40:50;;;;;;;52.77;24.37;;;1.60;99.90;;;;;;4200791;28;20472;-71
2023/04/09 05:42:52;;;;;;;49.53;23.23;;;1.70;99.90;;;;;;4203867;28;20447;-72
2023/04/09 05:44:54;;;;;;;54.40;23.20;;;1.60;99.90;;;;;;4201988;28;20559;-71
2023/04/09 05:46:56;;;;;;;55.83;24.13;;;1.70;99.90;;;;;;4203324;28;20516;-71
2023/04/09 05:48:58;;;;;;;53.90;23.17;;;1.70;99.90;;;;;;4201777;28;20439;-71
2023/04/09 05:51:01;;;;;;;59.97;24.60;;;1.70;99.90;;;;;;4202374;28;20530;-72
2023/04/09 05:53:03;;;;;;;58.77;24.07;;;1.70;99.90;;;;;;4202282;28;20533;-72
2023/04/09 05:55:08;;;;;;;59.67;25.90;;;1.70;99.90;;;;;;4201209;28;20531;-72
2023/04/09 05:57:10;;;;;;;58.87;25.00;;;1.80;99.90;;;;;;4203773;28;21211;-71
2023/04/09 05:59:12;;;;;;;54.00;24.63;;;1.80;99.90;;;;;;4204072;28;20447;-71
2023/04/09 06:01:14;;;;;;;55.47;25.73;;;1.80;99.90;;;;;;4204098;28;20519;-71
2023/04/09 06:03:16;;;;;;;59.50;26.20;;;1.80;99.90;;;;;;4202641;28;20478;-71
2023/04/09 06:05:21;;;;;;;56.80;25.27;;;1.90;99.90;;;;;;4202204;28;20444;-71
2023/04/09 06:07:25;;;;;;;62.43;26.53;;;1.80;99.90;;;;;;4199780;28;20464;-71
2023/04/09 06:09:27;;;;;;;56.20;24.40;;;1.90;99.90;;;;;;4202245;28;20451;-71
2023/04/09 06:11:29;;;;;;;58.37;24.10;;;1.90;99.90;;;;;;4204315;28;20485;-71
2023/04/09 06:13:31;;;;;;;60.37;26.63;;;1.90;99.90;;;;;;4201936;28;20468;-71
2023/04/09 06:15:33;;;;;;;56.53;25.23;;;2.00;99.90;;;;;;4203645;28;20458;-71
2023/04/09 06:17:35;;;;;;;55.93;24.77;;;2.00;99.90;;;;;;4204023;28;21019;-70
2023/04/09 06:19:37;;;;;;;52.37;24.43;;;2.00;99.90;;;;;;4202256;28;21228;-71
2023/04/09 06:21:39;;;;;;;53.87;24.53;;;2.10;99.90;;;;;;4202715;28;20445;-71
2023/04/09 06:23:44;;;;;;;56.83;25.13;;;2.10;99.90;;;;;;4202692;28;20908;-71
2023/04/09 06:25:46;;;;;;;55.63;23.83;;;2.10;99.90;;;;;;4200894;28;20452;-71
2023/04/09 06:27:47;;;;;;;51.60;23.53;;;2.10;99.90;;;;;;4200361;28;20463;-71
2023/04/09 06:29:49;;;;;;;56.60;25.03;;;2.10;99.90;;;;;;4202225;28;20869;-72
2023/04/09 06:31:52;;;;;;;54.87;23.37;;;2.20;99.90;;;;;;4201243;28;20475;-71
2023/04/09 06:33:56;;;;;;;50.27;23.00;;;2.20;99.90;;;;;;4201124;28;20471;-72
2023/04/09 06:36:05;;;;;;;53.43;23.03;;;2.20;99.90;;;;;;4200001;28;20456;-71
2023/04/09 06:38:10;;;;;;;48.40;23.17;;;2.20;99.90;;;;;;4204161;28;20451;-71
2023/04/09 06:40:14;;;;;;;53.70;24.13;;;2.20;99.90;;;;;;4204813;28;20506;-71
2023/04/09 06:42:16;;;;;;;50.90;23.27;;;2.30;99.90;;;;;;4204724;28;20454;-71
2023/04/09 06:44:20;;;;;;;53.77;22.40;;;2.40;99.90;;;;;;4199547;28;20467;-72
2023/04/09 06:46:22;;;;;;;50.43;22.20;;;2.40;99.90;;;;;;4203306;28;21082;-71
2023/04/09 06:48:27;;;;;;;49.53;22.50;;;2.40;99.90;;;;;;4198421;28;20450;-69
2023/04/09 06:50:29;;;;;;;44.73;21.03;;;2.50;99.90;;;;;;4199424;28;20815;-70
2023/04/09 06:52:31;;;;;;;48.43;21.00;;;2.50;99.90;;;;;;4205180;28;20448;-69
2023/04/09 06:54:33;;;;;;;47.27;21.60;;;2.50;99.90;;;;;;4197656;28;20479;-71
2023/04/09 06:56:36;;;;;;;49.13;22.47;;;2.50;99.90;;;;;;4203211;28;21000;-72
2023/04/09 06:58:38;;;;;;;53.87;23.10;;;2.60;99.90;;;;;;4204665;28;20451;-71
2023/04/09 07:00:42;;;;;;;54.03;23.23;;;2.60;99.90;;;;;;4205729;28;20959;-70
2023/04/09 07:02:44;;;;;;;58.17;26.53;;;2.70;99.90;;;;;;4197615;28;20462;-70
2023/04/09 07:04:47;;;;;;;50.63;23.57;;;2.70;99.90;;;;;;4204495;28;20478;-69
2023/04/09 07:06:50;;;;;;;51.07;23.03;;;2.80;99.90;;;;;;4207639;28;20463;-70
2023/04/09 07:08:52;;;;;;;49.57;21.23;;;2.80;99.90;;;;;;4207812;28;20494;-70
2023/04/09 07:10:54;;;;;;;51.23;22.10;;;2.90;99.90;;;;;;4208047;28;20459;-69
2023/04/09 07:12:57;;;;;;;55.33;24.77;;;2.90;99.90;;;;;;4207216;28;20444;-70
2023/04/09 07:15:00;;;;;;;49.73;22.73;;;3.00;99.90;;;;;;4201473;28;20509;-70
2023/04/09 07:17:02;;;;;;;53.83;23.77;;;3.00;99.90;;;;;;4208410;28;20518;-70
2023/04/09 07:19:06;;;;;;;53.27;22.83;;;3.10;99.90;;;;;;4203096;28;20456;-70
2023/04/09 07:21:08;;;;;;;50.53;22.17;;;3.10;99.90;;;;;;4205137;28;20461;-70
2023/04/09 07:23:10;;;;;;;51.90;23.67;;;3.20;99.90;;;;;;4203467;28;20452;-71
2023/04/09 07:25:12;;;;;;;52.73;24.80;;;3.20;99.90;;;;;;4201576;28;20494;-70
2023/04/09 07:27:14;;;;;;;53.37;24.70;;;3.30;99.90;;;;;;4201407;28;20471;-71
2023/04/09 07:29:19;;;;;;;51.93;24.67;;;3.40;99.90;;;;;;4202982;28;20454;-70
2023/04/09 07:31:21;;;;;;;53.30;24.43;;;3.40;99.90;;;;;;4200078;28;20429;-70
2023/04/09 07:33:23;;;;;;;55.03;25.30;;;3.50;99.90;;;;;;4202660;28;20479;-70
2023/04/09 07:35:25;;;;;;;49.60;23.30;;;3.50;99.90;;;;;;4204431;28;20566;-69
2023/04/09 07:37:27;;;;;;;49.57;23.63;;;3.60;99.90;;;;;;4203498;28;20494;-70
2023/04/09 07:39:29;;;;;;;51.07;23.63;;;3.70;99.90;;;;;;4203622;28;20443;-70
2023/04/09 07:41:31;;;;;;;56.07;23.37;;;3.80;99.90;;;;;;4196484;28;20464;-70
2023/04/09 07:43:33;;;;;;;54.30;25.00;;;3.90;99.90;;;;;;4199052;28;20439;-70
2023/04/09 07:45:36;;;;;;;51.57;23.73;;;4.00;99.90;;;;;;4202686;28;20520;-69
2023/04/09 07:47:39;;;;;;;50.30;23.53;;;4.10;99.90;;;;;;4198139;28;20475;-70
2023/04/09 07:49:41;;;;;;;53.20;23.93;;;4.20;99.90;;;;;;4207161;28;20466;-70
2023/04/09 07:51:43;;;;;;;50.63;23.83;;;4.20;99.90;;;;;;4204307;28;20540;-70
2023/04/09 07:53:45;;;;;;;53.53;25.47;;;4.20;99.90;;;;;;4203307;28;20509;-70
2023/04/09 07:55:47;;;;;;;55.43;24.53;;;4.30;99.90;;;;;;4202905;28;20455;-70
2023/04/09 07:57:50;;;;;;;48.93;22.60;;;4.40;99.90;;;;;;4201189;28;20471;-70
2023/04/09 07:59:54;;;;;;;47.80;22.30;;;4.40;99.90;;;;;;4200481;28;20483;-70
2023/04/09 08:01:58;;;;;;;45.83;21.10;;;4.50;99.90;;;;;;4199613;28;20919;-69
2023/04/09 08:04:00;;;;;;;43.17;21.83;;;4.60;99.90;;;;;;4198733;28;20449;-70
2023/04/09 08:06:02;;;;;;;49.10;23.00;;;4.60;99.90;;;;;;4198710;28;20500;-70
2023/04/09 08:08:05;;;;;;;43.63;22.27;;;4.70;99.90;;;;;;4201796;28;20440;-70
2023/04/09 08:10:12;;;;;;;48.27;23.00;;;4.80;99.90;;;;;;4200733;28;20520;-69
2023/04/09 08:12:14;;;;;;;48.23;22.80;;;4.80;99.90;;;;;;4199592;28;20463;-70
2023/04/09 08:14:17;;;;;;;48.47;23.17;;;4.90;99.90;;;;;;4202507;28;20522;-70
2023/04/09 08:16:20;;;;;;;46.87;22.13;;;5.00;99.90;;;;;;4206524;28;20468;-70
2023/04/09 08:18:23;;;;;;;46.33;23.03;;;5.10;99.90;;;;;;4201743;28;20456;-69
2023/04/09 08:20:26;;;;;;;46.77;22.33;;;5.20;99.90;;;;;;4204428;28;20543;-69
2023/04/09 08:22:28;;;;;;;40.13;21.20;;;5.20;99.90;;;;;;4198279;28;20492;-69
2023/04/09 08:24:31;;;;;;;45.17;21.40;;;5.30;99.90;;;;;;4210845;28;20487;-70
2023/04/09 08:26:33;;;;;;;41.23;20.93;;;5.40;99.90;;;;;;4206482;28;20487;-69
2023/04/09 08:28:35;;;;;;;40.63;20.87;;;5.50;99.90;;;;;;4201094;28;20502;-70
2023/04/09 08:30:37;;;;;;;39.30;19.83;;;5.50;99.90;;;;;;4205431;28;20446;-69
2023/04/09 08:32:39;;;;;;;38.77;19.93;;;5.50;99.90;;;;;;4199693;28;20453;-69
2023/04/09 08:34:42;;;;;;;46.03;20.87;;;5.70;99.90;;;;;;4203739;28;20568;-69
2023/04/09 08:36:46;;;;;;;39.50;19.27;;;5.70;99.90;;;;;;4196876;28;20876;-69
2023/04/09 08:38:48;;;;;;;37.17;19.10;;;5.80;99.90;;;;;;4202492;28;20534;-69
2023/04/09 08:40:50;;;;;;;39.07;18.87;;;5.80;99.90;;;;;;4205719;28;20457;-70
2023/04/09 08:42:56;;;;;;;39.23;20.50;;;5.90;99.90;;;;;;4198687;28;20923;-69
2023/04/09 08:44:58;;;;;;;39.13;19.83;;;5.90;99.90;;;;;;4207242;28;20474;-69
2023/04/09 08:47:00;;;;;;;39.97;18.43;;;6.00;99.90;;;;;;4200056;28;20487;-70
2023/04/09 08:49:02;;;;;;;35.17;17.33;;;6.10;99.90;;;;;;4205336;28;20495;-69
2023/04/09 08:51:05;;;;;;;35.70;18.67;;;6.10;99.90;;;;;;4200073;28;21138;-69
2023/04/09 08:53:10;;;;;;;36.90;20.03;;;6.30;99.90;;;;;;4199092;28;20477;-69
2023/04/09 08:55:12;;;;;;;34.77;19.20;;;6.30;99.90;;;;;;4206941;28;20489;-70
2023/04/09 08:57:14;;;;;;;36.57;19.30;;;6.40;99.90;;;;;;4201827;28;20985;-69
2023/04/09 08:59:18;;;;;;;36.93;18.97;;;6.50;99.90;;;;;;4198206;28;20457;-69
2023/04/09 09:01:24;;;;;;;37.00;18.63;;;6.50;99.90;;;;;;4203969;28;20469;-70
2023/04/09 09:03:26;;;;;;;40.20;19.47;;;6.60;99.90;;;;;;4203226;28;20533;-70
2023/04/09 09:05:36;;;;;;;38.33;19.67;;;6.70;99.90;;;;;;4199154;28;20500;-70
2023/04/09 09:07:53;;;;;;;37.83;20.07;;;6.80;99.90;;;;;;4201403;28;20520;-70
2023/04/09 09:09:57;;;;;;;38.73;20.00;;;6.90;99.90;;;;;;4204886;28;20545;-70
2023/04/09 09:12:00;;;;;;;38.43;20.30;;;7.00;99.90;;;;;;4199395;28;21051;-70
2023/04/09 09:14:04;;;;;;;41.40;21.93;;;7.10;99.90;;;;;;4200977;28;20471;-69
2023/04/09 09:16:14;;;;;;;42.27;21.53;;;7.10;99.90;;;;;;4205096;28;20481;-69
2023/04/09 09:18:18;;;;;;;37.57;19.83;;;7.30;99.90;;;;;;4202296;28;20449;-70
2023/04/09 09:20:21;;;;;;;39.70;20.77;;;7.30;99.90;;;;;;4208107;28;20446;-70
2023/04/09 09:22:23;;;;;;;39.40;20.17;;;7.40;99.90;;;;;;4207447;28;20450;-70
2023/04/09 09:24:26;;;;;;;37.43;19.77;;;7.50;99.90;;;;;;4203853;28;20542;-70
2023/04/09 09:26:30;;;;;;;35.50;18.60;;;7.60;99.90;;;;;;4204534;28;21172;-70
2023/04/09 09:28:36;;;;;;;33.33;17.70;;;7.70;99.90;;;;;;4201031;28;20460;-70
2023/04/09 09:30:39;;;;;;;35.37;18.53;;;7.70;99.90;;;;;;4202790;28;20478;-71
2023/04/09 09:32:42;;;;;;;36.70;18.57;;;7.70;99.90;;;;;;4204546;28;20505;-69
2023/04/09 09:34:58;;;;;;;35.47;18.00;;;7.80;99.90;;;;;;4204002;28;20856;-70
2023/04/09 09:37:00;;;;;;;34.33;18.60;;;7.80;99.90;;;;;;4203888;28;20479;-70
2023/04/09 09:39:08;;;;;;;34.13;18.73;;;7.90;99.90;;;;;;4202375;28;20448;-71
2023/04/09 09:41:18;;;;;;;33.37;17.83;;;8.00;99.90;;;;;;4208283;28;20457;-70
2023/04/09 09:43:20;;;;;;;32.63;17.47;;;8.00;99.90;;;;;;4205862;28;20855;-70
2023/04/09 09:45:22;;;;;;;35.57;18.93;;;8.10;99.90;;;;;;4205426;28;20495;-69
2023/04/09 09:47:26;;;;;;;33.53;17.43;;;8.10;99.90;;;;;;4207087;28;20464;-70
2023/04/09 09:49:28;;;;;;;34.77;17.13;;;8.10;99.90;;;;;;4206623;28;20525;-70
2023/04/09 09:51:32;;;;;;;30.20;16.90;;;8.30;99.90;;;;;;4208396;28;20823;-71
2023/04/09 09:53:36;;;;;;;30.10;16.27;;;8.30;99.90;;;;;;4207325;28;20516;-71
2023/04/09 09:55:40;;;;;;;34.03;17.30;;;8.30;99.90;;;;;;4202496;28;20537;-71
2023/04/09 09:57:46;;;;;;;32.13;17.33;;;8.40;99.90;;;;;;4204028;28;20479;-71
2023/04/09 09:59:53;;;;;;;29.87;15.87;;;8.50;99.90;;;;;;4202617;28;20491;-70
2023/04/09 10:01:59;;;;;;;29.80;16.40;;;8.50;99.90;;;;;;4198144;28;20450;-71
2023/04/09 10:04:03;;;;;;;28.33;16.23;;;8.60;99.90;;;;;;4199874;28;20518;-71
2023/04/09 10:06:06;;;;;;;27.33;15.40;;;8.60;99.90;;;;;;4200547;28;20468;-71
2023/04/09 10:08:09;;;;;;;28.50;16.13;;;8.70;99.90;;;;;;4200687;28;20550;-70
2023/04/09 10:10:11;;;;;;;27.50;15.43;;;8.80;99.90;;;;;;4201593;28;20719;-71
2023/04/09 10:12:14;;;;;;;27.80;14.73;;;8.90;99.90;;;;;;4199415;28;20579;-71
2023/04/09 10:14:18;;;;;;;29.17;16.10;;;8.90;99.90;;;;;;4200887;28;20278;-71
2023/04/09 10:16:21;;;;;;;26.87;15.13;;;9.00;99.90;;;;;;4201646;28;20228;-71
2023/04/09 10:18:24;;;;;;;25.87;14.53;;;9.10;99.90;;;;;;4201664;28;20197;-71
2023/04/09 10:20:32;;;;;;;26.67;15.13;;;9.10;99.90;;;;;;4202507;28;20315;-71
2023/04/09 10:22:36;;;;;;;26.03;15.07;;;9.20;99.90;;;;;;4205806;28;20210;-71
2023/04/09 10:24:38;;;;;;;28.47;15.07;;;9.30;99.90;;;;;;4201605;28;20204;-70
2023/04/09 10:26:41;;;;;;;27.03;14.43;;;9.30;99.90;;;;;;4202336;28;20581;-70
2023/04/09 10:28:43;;;;;;;26.40;14.40;;;9.40;99.90;;;;;;4203083;28;20210;-71
2023/04/09 10:30:46;;;;;;;24.93;13.73;;;9.50;99.90;;;;;;4202028;28;20222;-71